createdAt,value
2023-02-27T00:00:14.904Z,58.25
2023-02-27T00:02:43.674Z,57.83
2023-02-27T00:05:12.916Z,58.11
2023-02-27T00:07:42.051Z,57.84
2023-02-27T00:10:13.829Z,57.34
2023-02-27T00:12:42.590Z,57.70
2023-02-27T00:15:14.685Z,57.21
2023-02-27T00:17:43.310Z,57.67
2023-02-27T00:20:15.530Z,57.93
2023-02-27T00:22:44.535Z,57.69
2023-02-27T00:25:14.069Z,57.75
2023-02-27T00:27:42.617Z,57.46
2023-02-27T00:30:16.440Z,57.60
2023-02-27T00:32:45.761Z,58.09
2023-02-27T00:35:14.353Z,57.89
2023-02-27T00:37:42.674Z,57.60
2023-02-27T00:40:12.953Z,57.34
2023-02-27T00:42:41.390Z,57.57
2023-02-27T00:45:12.282Z,57.17
2023-02-27T00:47:40.633Z,57.18
2023-02-27T00:50:10.543Z,56.84
2023-02-27T00:52:38.978Z,56.94
2023-02-27T00:55:08.825Z,56.83
2023-02-27T00:57:37.705Z,56.69
2023-02-27T01:00:08.591Z,56.58
2023-02-27T01:02:39.007Z,57.74
2023-02-27T01:05:10.299Z,57.72
2023-02-27T01:07:38.825Z,57.57
2023-02-27T01:10:09.829Z,57.51
2023-02-27T01:12:39.808Z,58.32
2023-02-27T01:15:10.630Z,58.21
2023-02-27T01:17:40.727Z,58.39
2023-02-27T01:20:11.416Z,58.48
2023-02-27T01:22:40.190Z,58.36
2023-02-27T01:25:09.568Z,58.62
2023-02-27T01:27:40.881Z,59.04
2023-02-27T01:30:12.644Z,58.94
2023-02-27T01:32:42.503Z,58.87
2023-02-27T01:35:13.109Z,59.36
2023-02-27T01:37:41.617Z,59.54
2023-02-27T01:40:12.136Z,59.24
2023-02-27T01:42:40.473Z,59.31
2023-02-27T01:45:32.228Z,59.21
2023-02-27T01:48:11.958Z,59.04
2023-02-27T01:50:48.169Z,58.67
2023-02-27T01:53:18.452Z,58.54
2023-02-27T01:55:48.274Z,58.73
2023-02-27T01:58:17.362Z,58.62
2023-02-27T02:00:46.512Z,58.68
2023-02-27T02:03:24.983Z,58.50
2023-02-27T02:05:57.035Z,58.57
2023-02-27T02:08:28.476Z,58.48
2023-02-27T02:10:59.513Z,58.40
2023-02-27T02:13:28.695Z,58.06
2023-02-27T02:16:17.948Z,57.86
2023-02-27T02:18:56.130Z,58.00
2023-02-27T02:22:10.780Z,57.99
2023-02-27T02:25:41.333Z,58.05
2023-02-27T02:28:30.340Z,57.91
2023-02-27T02:31:27.532Z,57.89
2023-02-27T02:34:54.554Z,58.26
2023-02-27T02:38:12.354Z,58.22
2023-02-27T02:40:49.053Z,58.24
2023-02-27T02:43:27.009Z,58.24
2023-02-27T02:46:05.247Z,58.48
2023-02-27T02:48:40.705Z,58.80
2023-02-27T02:51:19.543Z,58.86
2023-02-27T02:53:57.945Z,58.92
2023-02-27T02:56:33.802Z,58.62
2023-02-27T02:59:08.946Z,58.58
2023-02-27T03:01:42.199Z,58.48
2023-02-27T03:04:15.621Z,58.70
2023-02-27T03:06:48.710Z,58.61
2023-02-27T03:09:24.375Z,58.81
2023-02-27T03:11:56.492Z,58.91
2023-02-27T03:14:32.575Z,58.85
2023-02-27T03:17:06.830Z,59.11
2023-02-27T03:19:42.057Z,58.66
2023-02-27T03:22:16.779Z,58.93
2023-02-27T03:24:49.524Z,59.16
2023-02-27T03:27:20.350Z,59.03
2023-02-27T03:29:58.095Z,59.15
2023-02-27T03:32:32.763Z,59.36
2023-02-27T03:35:02.168Z,59.36
2023-02-27T03:37:42.781Z,59.10
2023-02-27T03:40:18.440Z,59.36
2023-02-27T03:42:54.991Z,59.63
2023-02-27T03:45:41.197Z,59.42
2023-02-27T03:48:10.228Z,59.56
2023-02-27T03:50:39.285Z,59.56
2023-02-27T03:53:13.973Z,59.43
2023-02-27T03:55:45.577Z,59.51
2023-02-27T03:58:15.826Z,59.86
2023-02-27T04:00:44.440Z,59.84
2023-02-27T04:03:13.241Z,59.80
2023-02-27T04:05:42.252Z,60.07
2023-02-27T04:08:40.272Z,59.49
2023-02-27T04:11:28.178Z,59.83
2023-02-27T04:14:16.129Z,59.46
2023-02-27T04:17:03.798Z,59.60
2023-02-27T04:19:51.905Z,59.54
2023-02-27T04:22:33.986Z,59.74
2023-02-27T04:25:23.690Z,60.41
2023-02-27T04:27:59.169Z,60.13
2023-02-27T04:30:39.834Z,60.26
2023-02-27T04:33:11.905Z,60.27
2023-02-27T04:35:48.773Z,60.29
2023-02-27T04:38:23.950Z,60.21
2023-02-27T04:40:57.819Z,60.43
2023-02-27T04:43:29.321Z,60.38
2023-02-27T04:46:01.557Z,60.43
2023-02-27T04:48:36.597Z,60.10
2023-02-27T04:51:11.432Z,60.39
2023-02-27T04:53:47.599Z,60.62
2023-02-27T04:56:22.976Z,60.65
2023-02-27T04:58:55.120Z,60.52
2023-02-27T05:01:33.377Z,60.45
2023-02-27T05:04:05.021Z,60.36
2023-02-27T05:06:39.378Z,60.65
2023-02-27T05:09:15.808Z,60.34
2023-02-27T05:11:50.921Z,60.27
2023-02-27T05:14:24.321Z,60.50
2023-02-27T05:17:04.102Z,60.37
2023-02-27T05:19:33.596Z,60.33
2023-02-27T05:22:14.782Z,60.33
2023-02-27T05:24:52.004Z,60.58
2023-02-27T05:27:34.791Z,60.71
2023-02-27T05:30:12.476Z,60.96
2023-02-27T05:32:49.548Z,60.66
2023-02-27T05:35:26.809Z,60.72
2023-02-27T05:38:05.124Z,60.69
2023-02-27T05:40:38.900Z,61.04
2023-02-27T05:43:13.334Z,61.03
2023-02-27T05:45:48.083Z,61.63
2023-02-27T05:48:23.408Z,61.29
2023-02-27T05:50:54.064Z,61.27
2023-02-27T05:53:23.397Z,61.59
2023-02-27T05:55:55.380Z,61.48
2023-02-27T05:58:27.999Z,61.54
2023-02-27T06:01:00.149Z,61.87
2023-02-27T06:03:32.856Z,61.98
2023-02-27T06:06:05.025Z,61.93
2023-02-27T06:08:33.660Z,61.93
2023-02-27T06:11:02.132Z,62.18
2023-02-27T06:13:30.520Z,62.21
2023-02-27T06:15:58.933Z,62.26
2023-02-27T06:18:27.272Z,62.78
2023-02-27T06:20:57.432Z,62.70
2023-02-27T06:23:25.917Z,62.95
2023-02-27T06:25:54.191Z,62.86
2023-02-27T06:28:22.520Z,62.95
2023-02-27T06:30:55.102Z,62.98
2023-02-27T06:33:23.552Z,63.06
2023-02-27T06:35:51.898Z,63.02
2023-02-27T06:38:21.895Z,63.05
2023-02-27T06:40:51.814Z,63.38
2023-02-27T06:43:22.811Z,63.51
2023-02-27T06:45:51.399Z,63.62
2023-02-27T06:48:19.652Z,63.69
2023-02-27T06:50:52.731Z,63.44
2023-02-27T06:53:22.492Z,64.00
2023-02-27T06:55:50.980Z,63.89
2023-02-27T06:58:19.542Z,63.43
2023-02-27T07:00:48.189Z,63.30
2023-02-27T07:03:16.611Z,63.33
2023-02-27T07:05:46.237Z,63.31
2023-02-27T07:08:17.650Z,63.21
2023-02-27T07:10:49.165Z,63.31
2023-02-27T07:13:19.713Z,62.86
2023-02-27T07:15:48.036Z,63.42
2023-02-27T07:18:16.394Z,63.03
2023-02-27T07:20:44.734Z,63.51
2023-02-27T07:23:13.004Z,63.44
2023-02-27T07:25:41.407Z,63.69
2023-02-27T07:28:11.150Z,63.37
2023-02-27T07:30:39.613Z,63.64
2023-02-27T07:33:07.936Z,63.70
2023-02-27T07:35:36.397Z,63.40
2023-02-27T07:38:05.213Z,63.45
2023-02-27T07:40:33.582Z,63.82
2023-02-27T07:43:01.876Z,63.11
2023-02-27T07:45:31.661Z,62.44
2023-02-27T07:48:00.110Z,60.87
2023-02-27T07:50:28.490Z,59.72
2023-02-27T07:52:56.947Z,58.40
2023-02-27T07:55:25.253Z,56.53
2023-02-27T07:57:53.734Z,55.52
2023-02-27T08:00:23.221Z,54.13
2023-02-27T08:02:52.960Z,53.42
2023-02-27T08:05:21.421Z,52.80
2023-02-27T08:07:49.707Z,51.85
2023-02-27T08:10:19.041Z,50.92
2023-02-27T08:12:47.555Z,50.44
2023-02-27T08:15:17.232Z,49.40
2023-02-27T08:17:47.066Z,48.60
2023-02-27T08:20:19.019Z,48.48
2023-02-27T08:22:47.388Z,47.48
2023-02-27T08:25:16.201Z,46.90
2023-02-27T08:27:44.863Z,45.92
2023-02-27T08:30:14.575Z,46.22
2023-02-27T08:32:43.464Z,46.04
2023-02-27T08:35:11.758Z,45.57
2023-02-27T08:37:41.497Z,45.80
2023-02-27T08:40:12.104Z,45.55
2023-02-27T08:42:40.490Z,45.32
2023-02-27T08:45:11.817Z,44.90
2023-02-27T08:47:40.237Z,44.18
2023-02-27T08:50:10.430Z,44.14
2023-02-27T08:52:40.567Z,44.13
2023-02-27T08:55:10.275Z,44.19
2023-02-27T08:57:39.184Z,43.59
2023-02-27T09:00:10.807Z,43.10
2023-02-27T09:02:39.192Z,42.99
2023-02-27T09:05:08.699Z,42.76
2023-02-27T09:07:37.330Z,43.51
2023-02-27T09:10:08.520Z,43.13
2023-02-27T09:12:37.617Z,42.72
2023-02-27T09:15:07.342Z,42.27
2023-02-27T09:17:35.710Z,42.32
2023-02-27T09:20:05.149Z,42.57
2023-02-27T09:22:34.021Z,42.65
2023-02-27T09:25:02.410Z,42.68
2023-02-27T09:27:32.500Z,42.87
2023-02-27T09:30:00.911Z,43.04
2023-02-27T09:32:29.513Z,42.89
2023-02-27T09:34:58.602Z,46.44
2023-02-27T09:37:27.086Z,46.49
2023-02-27T09:39:55.416Z,50.65
2023-02-27T09:42:27.697Z,54.02
2023-02-27T09:45:00.347Z,52.45
2023-02-27T09:47:34.875Z,52.17
2023-02-27T09:50:06.428Z,51.51
2023-02-27T09:52:38.682Z,52.30
2023-02-27T09:55:12.876Z,53.28
2023-02-27T09:57:48.478Z,55.02
2023-02-27T10:00:36.271Z,53.56
2023-02-27T10:03:24.190Z,52.72
2023-02-27T10:06:07.099Z,51.57
2023-02-27T10:08:41.973Z,53.35
2023-02-27T10:11:15.412Z,54.55
2023-02-27T10:13:58.314Z,53.03
2023-02-27T10:16:29.793Z,52.94
2023-02-27T10:19:01.374Z,52.72
2023-02-27T10:21:35.461Z,53.04
2023-02-27T10:24:12.303Z,51.84
2023-02-27T10:26:43.626Z,54.36
2023-02-27T10:29:20.399Z,53.14
2023-02-27T10:31:56.666Z,53.89
2023-02-27T10:34:26.738Z,55.35
2023-02-27T10:36:55.382Z,53.22
2023-02-27T10:39:25.647Z,54.25
2023-02-27T10:41:54.320Z,53.84
2023-02-27T10:44:24.490Z,54.62
2023-02-27T10:46:54.242Z,54.37
2023-02-27T10:49:23.670Z,53.85
2023-02-27T10:52:08.994Z,53.56
2023-02-27T10:54:38.114Z,52.62
2023-02-27T10:57:21.010Z,52.00
2023-02-27T10:59:57.801Z,50.88
2023-02-27T11:02:33.916Z,54.52
2023-02-27T11:05:02.401Z,52.63
2023-02-27T11:07:34.764Z,54.34
2023-02-27T11:10:19.926Z,52.80
2023-02-27T11:13:05.478Z,50.81
2023-02-27T11:15:36.140Z,53.83
2023-02-27T11:18:29.254Z,52.90
2023-02-27T11:21:20.645Z,53.23
2023-02-27T11:23:59.820Z,54.61
2023-02-27T11:26:33.046Z,52.98
2023-02-27T11:29:18.386Z,50.79
2023-02-27T11:31:53.857Z,48.38
2023-02-27T11:34:31.654Z,47.88
2023-02-27T11:37:03.760Z,47.74
2023-02-27T11:39:37.846Z,46.46
2023-02-27T11:42:27.682Z,45.50
2023-02-27T11:44:59.791Z,45.06
2023-02-27T11:47:32.264Z,44.64
2023-02-27T11:50:48.720Z,44.83
2023-02-27T11:54:05.446Z,44.41
2023-02-27T11:56:37.699Z,46.84
2023-02-27T11:59:19.038Z,46.92
2023-02-27T12:01:53.880Z,46.43
2023-02-27T12:04:28.641Z,45.97
2023-02-27T12:07:03.819Z,45.65
2023-02-27T12:09:45.850Z,47.48
2023-02-27T12:12:23.729Z,46.20
2023-02-27T12:15:03.354Z,46.89
2023-02-27T12:17:36.777Z,48.91
2023-02-27T12:20:24.937Z,46.00
2023-02-27T12:22:55.978Z,45.74
2023-02-27T12:25:37.419Z,45.51
2023-02-27T12:28:20.398Z,45.11
2023-02-27T12:31:02.468Z,44.65
2023-02-27T12:33:40.807Z,43.71
2023-02-27T12:36:13.822Z,43.78
2023-02-27T12:38:43.861Z,43.21
2023-02-27T12:41:44.196Z,44.18
2023-02-27T12:44:41.856Z,44.56
2023-02-27T12:47:27.869Z,45.00
2023-02-27T12:50:02.588Z,44.13
2023-02-27T12:52:47.315Z,43.15
2023-02-27T12:55:20.672Z,42.97
2023-02-27T12:58:25.297Z,44.90
2023-02-27T13:01:00.884Z,43.74
2023-02-27T13:03:35.535Z,43.71
2023-02-27T13:06:15.890Z,44.52
2023-02-27T13:09:07.009Z,44.09
2023-02-27T13:11:48.247Z,43.85
2023-02-27T13:14:32.332Z,43.40
2023-02-27T13:17:06.763Z,42.98
2023-02-27T13:19:41.127Z,43.81
2023-02-27T13:22:19.744Z,43.58
2023-02-27T13:24:52.808Z,42.63
2023-02-27T13:27:28.594Z,42.32
2023-02-27T13:30:17.819Z,42.91
2023-02-27T13:32:54.131Z,43.28
2023-02-27T13:35:46.799Z,44.14
2023-02-27T13:38:35.977Z,43.84
2023-02-27T13:41:39.716Z,42.88
2023-02-27T13:44:52.875Z,42.91
2023-02-27T13:47:49.918Z,44.85
2023-02-27T13:50:51.704Z,44.18
2023-02-27T13:53:22.571Z,44.11
2023-02-27T13:55:53.450Z,42.94
2023-02-27T13:58:24.735Z,42.23
2023-02-27T14:01:01.488Z,41.74
2023-02-27T14:03:32.176Z,41.97
2023-02-27T14:06:04.129Z,41.40
2023-02-27T14:08:40.881Z,42.60
2023-02-27T14:11:22.816Z,43.78
2023-02-27T14:14:38.905Z,44.11
2023-02-27T14:17:12.046Z,44.67
2023-02-27T14:19:56.953Z,43.98
2023-02-27T14:22:42.614Z,43.95
2023-02-27T14:25:32.894Z,43.98
2023-02-27T14:28:02.280Z,44.29
2023-02-27T14:30:41.752Z,43.79
2023-02-27T14:33:40.330Z,43.94
2023-02-27T14:36:16.802Z,43.87
2023-02-27T14:38:45.362Z,43.92
2023-02-27T14:41:38.262Z,43.48
2023-02-27T14:44:06.781Z,44.19
2023-02-27T14:46:40.416Z,44.53
2023-02-27T14:49:24.722Z,44.29
2023-02-27T14:51:53.177Z,44.62
2023-02-27T14:54:23.699Z,44.94
2023-02-27T14:56:57.264Z,44.95
2023-02-27T14:59:28.480Z,45.39
2023-02-27T15:02:01.950Z,45.54
2023-02-27T15:04:34.353Z,45.81
2023-02-27T15:07:04.080Z,46.44
2023-02-27T15:09:40.586Z,47.14
2023-02-27T15:12:11.568Z,46.93
2023-02-27T15:14:41.346Z,47.36
2023-02-27T15:17:17.908Z,47.46
2023-02-27T15:19:53.606Z,47.69
2023-02-27T15:22:38.142Z,47.75
2023-02-27T15:25:09.189Z,47.68
2023-02-27T15:27:38.566Z,47.68
2023-02-27T15:30:18.834Z,47.79
2023-02-27T15:32:47.281Z,48.16
2023-02-27T15:35:23.390Z,48.79
2023-02-27T15:37:54.684Z,48.89
2023-02-27T15:40:26.454Z,48.80
2023-02-27T15:42:55.733Z,48.75
2023-02-27T15:45:28.588Z,48.98
2023-02-27T15:47:57.528Z,49.72
2023-02-27T15:50:32.607Z,49.64
2023-02-27T15:53:05.506Z,49.54
2023-02-27T15:55:37.390Z,49.79
2023-02-27T15:58:21.156Z,50.37
2023-02-27T16:00:53.014Z,50.19
2023-02-27T16:03:24.813Z,50.14
2023-02-27T16:05:54.626Z,50.07
2023-02-27T16:08:23.194Z,50.35
2023-02-27T16:10:52.993Z,50.70
2023-02-27T16:13:23.880Z,50.57
2023-02-27T16:16:04.185Z,50.78
2023-02-27T16:18:36.323Z,51.27
2023-02-27T16:21:15.376Z,51.35
2023-02-27T16:23:45.321Z,51.54
2023-02-27T16:26:31.638Z,51.54
2023-02-27T16:29:03.819Z,52.04
2023-02-27T16:31:35.091Z,52.37
2023-02-27T16:34:15.962Z,52.90
2023-02-27T16:36:55.436Z,53.22
2023-02-27T16:39:24.146Z,53.26
2023-02-27T16:41:54.434Z,53.12
2023-02-27T16:44:24.313Z,53.00
2023-02-27T16:46:53.036Z,53.36
2023-02-27T16:49:24.428Z,53.32
2023-02-27T16:51:54.449Z,53.23
2023-02-27T16:54:23.599Z,52.65
2023-02-27T16:56:52.745Z,52.82
2023-02-27T16:59:31.664Z,53.18
2023-02-27T17:02:02.658Z,53.27
2023-02-27T17:04:31.878Z,53.20
2023-02-27T17:07:06.344Z,53.47
2023-02-27T17:09:35.213Z,53.10
2023-02-27T17:12:03.553Z,53.48
2023-02-27T17:14:31.868Z,53.35
2023-02-27T17:17:00.213Z,53.51
2023-02-27T17:19:28.848Z,54.15
2023-02-27T17:21:57.460Z,53.84
2023-02-27T17:24:27.231Z,54.17
2023-02-27T17:26:55.752Z,54.40
2023-02-27T17:29:24.962Z,54.57
2023-02-27T17:31:53.695Z,54.39
2023-02-27T17:34:22.357Z,54.70
2023-02-27T17:36:51.168Z,55.01
2023-02-27T17:39:19.466Z,54.89
2023-02-27T17:41:49.325Z,54.97
2023-02-27T17:44:17.606Z,55.19
2023-02-27T17:46:45.889Z,55.26
2023-02-27T17:49:15.108Z,54.88
2023-02-27T17:51:43.351Z,55.24
2023-02-27T17:54:11.733Z,55.23
2023-02-27T17:56:40.152Z,55.47
2023-02-27T17:59:10.884Z,55.13
2023-02-27T18:01:39.336Z,55.45
2023-02-27T18:04:11.255Z,55.72
2023-02-27T18:06:40.020Z,55.83
2023-02-27T18:09:08.350Z,55.58
2023-02-27T18:11:37.960Z,55.94
2023-02-27T18:14:06.909Z,56.15
2023-02-27T18:16:36.637Z,55.85
2023-02-27T18:19:06.885Z,55.47
2023-02-27T18:21:35.450Z,55.64
2023-02-27T18:24:04.164Z,55.73
2023-02-27T18:26:34.672Z,55.88
2023-02-27T18:29:07.585Z,56.03
2023-02-27T18:31:40.020Z,55.73
2023-02-27T18:34:08.994Z,55.85
2023-02-27T18:36:38.088Z,55.90
2023-02-27T18:39:07.900Z,55.93
2023-02-27T18:41:36.854Z,55.80
2023-02-27T18:44:05.947Z,55.97
2023-02-27T18:46:37.932Z,55.73
2023-02-27T18:49:06.655Z,55.93
2023-02-27T18:51:34.915Z,56.13
2023-02-27T18:54:05.146Z,56.40
2023-02-27T18:56:33.754Z,56.47
2023-02-27T18:59:05.192Z,56.29
2023-02-27T19:01:39.132Z,56.18
2023-02-27T19:04:09.724Z,56.68
2023-02-27T19:06:40.791Z,56.80
2023-02-27T19:09:12.318Z,56.47
2023-02-27T19:11:41.065Z,56.74
2023-02-27T19:14:13.627Z,56.50
2023-02-27T19:16:44.257Z,57.32
2023-02-27T19:19:12.717Z,57.31
2023-02-27T19:21:41.304Z,57.21
2023-02-27T19:24:10.885Z,57.40
2023-02-27T19:26:39.575Z,57.76
2023-02-27T19:29:08.265Z,57.49
2023-02-27T19:31:36.609Z,57.77
2023-02-27T19:34:06.490Z,57.69
2023-02-27T19:36:35.632Z,58.04
2023-02-27T19:39:05.250Z,57.75
2023-02-27T19:41:33.812Z,57.72
2023-02-27T19:44:02.164Z,57.75
2023-02-27T19:46:33.996Z,57.82
2023-02-27T19:49:06.431Z,57.68
2023-02-27T19:51:35.429Z,57.38
2023-02-27T19:54:04.087Z,57.62
2023-02-27T19:56:32.777Z,57.74
2023-02-27T19:59:02.290Z,57.66
2023-02-27T20:01:32.820Z,57.72
2023-02-27T20:04:02.726Z,57.25
2023-02-27T20:06:41.592Z,57.83
2023-02-27T20:09:11.535Z,57.83
2023-02-27T20:11:40.293Z,58.20
2023-02-27T20:14:09.022Z,58.11
2023-02-27T20:16:37.664Z,58.54
2023-02-27T20:19:06.998Z,58.39
2023-02-27T20:21:37.170Z,58.13
2023-02-27T20:24:06.336Z,58.68
2023-02-27T20:26:37.558Z,58.55
2023-02-27T20:29:10.513Z,58.43
2023-02-27T20:31:42.397Z,58.46
2023-02-27T20:34:13.277Z,59.26
2023-02-27T20:36:44.306Z,59.37
2023-02-27T20:39:13.712Z,59.13
2023-02-27T20:41:42.089Z,59.51
2023-02-27T20:44:11.494Z,59.53
2023-02-27T20:46:42.398Z,59.22
2023-02-27T20:49:14.427Z,59.63
2023-02-27T20:51:45.031Z,60.05
2023-02-27T20:54:19.955Z,60.06
2023-02-27T20:56:51.884Z,60.28
2023-02-27T20:59:22.152Z,60.70
2023-02-27T21:01:52.382Z,60.98
2023-02-27T21:04:23.202Z,61.11
2023-02-27T21:06:54.652Z,61.10
2023-02-27T21:09:22.998Z,61.33
2023-02-27T21:11:51.246Z,61.36
2023-02-27T21:14:19.564Z,61.63
2023-02-27T21:16:47.838Z,61.77
2023-02-27T21:19:16.216Z,61.90
2023-02-27T21:21:44.605Z,62.22
2023-02-27T21:24:14.690Z,62.39
2023-02-27T21:26:43.561Z,62.68
2023-02-27T21:29:14.782Z,62.80
2023-02-27T21:31:45.729Z,62.91
2023-02-27T21:34:17.189Z,62.91
2023-02-27T21:36:46.337Z,63.05
2023-02-27T21:39:19.634Z,63.17
2023-02-27T21:41:49.245Z,63.44
2023-02-27T21:44:20.569Z,63.27
2023-02-27T21:46:49.503Z,63.82
2023-02-27T21:49:19.995Z,63.86
2023-02-27T21:51:48.898Z,63.78
2023-02-27T21:54:20.150Z,63.92
2023-02-27T21:56:49.632Z,64.32
2023-02-27T21:59:19.180Z,64.19
2023-02-27T22:01:48.592Z,64.35
2023-02-27T22:04:18.701Z,64.52
2023-02-27T22:06:47.920Z,64.74
2023-02-27T22:09:18.196Z,64.60
2023-02-27T22:11:46.863Z,64.30
2023-02-27T22:14:15.159Z,64.44
2023-02-27T22:16:43.929Z,64.93
2023-02-27T22:19:19.715Z,65.00
2023-02-27T22:21:48.108Z,65.11
2023-02-27T22:24:18.299Z,65.25
2023-02-27T22:26:47.790Z,65.01
2023-02-27T22:29:17.032Z,65.15
2023-02-27T22:31:45.636Z,65.12
2023-02-27T22:34:18.166Z,65.37
2023-02-27T22:36:48.501Z,65.60
2023-02-27T22:39:18.254Z,65.80
2023-02-27T22:41:47.128Z,65.72
2023-02-27T22:44:17.619Z,65.82
2023-02-27T22:46:48.671Z,66.11
2023-02-27T22:49:19.433Z,65.91
2023-02-27T22:51:50.825Z,65.92
2023-02-27T22:54:22.762Z,66.07
2023-02-27T22:56:52.383Z,65.98
2023-02-27T22:59:21.101Z,65.97
2023-02-27T23:01:50.387Z,66.09
2023-02-27T23:04:18.815Z,66.22
2023-02-27T23:06:47.158Z,66.60
2023-02-27T23:09:17.745Z,66.63
2023-02-27T23:11:47.738Z,66.48
2023-02-27T23:14:16.462Z,66.58
2023-02-27T23:16:46.499Z,66.38
2023-02-27T23:19:17.390Z,66.35
2023-02-27T23:21:45.921Z,66.71
2023-02-27T23:24:17.271Z,66.58
2023-02-27T23:26:49.357Z,66.70
2023-02-27T23:29:18.658Z,67.15
2023-02-27T23:31:47.089Z,67.20
2023-02-27T23:34:15.580Z,67.07
2023-02-27T23:36:43.908Z,67.07
2023-02-27T23:39:12.257Z,67.18
2023-02-27T23:41:40.627Z,67.68
2023-02-27T23:44:10.358Z,67.98
2023-02-27T23:46:39.559Z,68.10
2023-02-27T23:49:08.748Z,68.13
2023-02-27T23:51:37.329Z,67.84
2023-02-27T23:54:05.880Z,68.27
2023-02-27T23:56:34.219Z,68.27
2023-02-27T23:59:05.347Z,68.53
